Nantucket Memorial Airport
KACK : rendu visible

Aérodrome :











RETROUVEZ-NOUS SUR...

 
LOGIN :

S'inscrire | Disclaimer

   EN    FR    IT 

 









Légende :    VFR   VFR Marginal   IFR   IFR Intensif   IFR Très Intensif
Visi : 
Plafond : 
>= 8 km
>= 3000ft
5 à 8 km
1000 à 3000 ft
1500m à 5 km
500 à 1000 ft
800 à 1500m
200 à 500 ft
< 800m
< 200 ft
Symboles :   Orages  Brouillard  Fortes neiges  Fortes précipitations  Vent > 20 kt






- Altitude de l'aérodrome : 47 ft
- Code IATA : ACK


KACK - Nantucket Memorial

DERNIER METAR :
  • 170953Z AUTO 06015G19KT 10SM BKN034 04/M02 A3036 RMK AO2 SLP280 T00441022

METARs EXPIRÉS :
  • 170853Z AUTO 06014G20KT 10SM BKN034 04/M03 A3038 RMK AO2 SLP287 T00441028 55010
  • 170753Z AUTO 05013KT 10SM BKN037 04/M03 A3037 RMK AO2 SLP285 T00391033

TAF KACK
Valide du 17 à 09h jusqu'au 18 à 06h UTC


170928Z 1709/1806 05015G25KT P6SM BKN035
FM171300 06018G25KT P6SM BKN030
FM172300 06022G30KT P6SM OVC010
FM180400 05024G35KT P6SM -RA OVC010



MET'MAP, la Météo Aéronautique d'un coup d'oeil ! - Copyright ORBIFLY Décembre 2007 - Disclaimer

ORBIFLY MET'MAP TEAM :

Programmation & Développement : Alexandra Zaïnal
Conception & Développement : Baudouin d'Aumeries
Co-Programmation & Développement : Marc-Olivier Méhu
Soutien technique & logistique : Manuel Goepfert

Contact : metmap@orbifly.com




SOURCES & CREDITS :

   NOAA       Earth
Advisory